Time;durP1;ratioP1;P1;durP2;ratioP2;P2;SDS_P1;SDS_P2;PMS_P1;PMS_P2;Temp;Humidity;BMP_temperature;BMP_pressure;BME280_temperature;BME280_humidity;BME280_pressure;Samples;Min_cycle;Max_cycle;Signal;HPM_P1;HPM_P2
2023/05/11 04:21:23;;;;;;;1.52;1.40;;;12.20;99.90;;;11.22;100.00;97077.63;6177734;23;20742;-91
2023/05/11 04:23:50;;;;;;;1.85;1.30;;;12.20;99.90;;;11.21;100.00;97082.13;6181673;23;20381;-89
2023/05/11 04:26:16;;;;;;;3.10;1.27;;;12.10;99.90;;;11.19;100.00;97086.94;6185382;23;20381;-89
2023/05/11 04:28:46;;;;;;;3.90;1.40;;;12.10;99.90;;;11.12;100.00;97082.94;6184473;23;20855;-90
2023/05/11 04:31:12;;;;;;;1.45;1.20;;;12.00;99.90;;;11.14;100.00;97086.09;6183115;23;20380;-89
2023/05/11 04:33:38;;;;;;;2.67;1.40;;;12.00;99.90;;;11.09;100.00;97078.94;6208357;23;20419;-91
2023/05/11 04:36:05;;;;;;;1.50;1.20;;;12.00;99.90;;;11.11;100.00;97092.72;6184495;23;20891;-90
2023/05/11 04:38:36;;;;;;;2.53;1.40;;;12.00;99.90;;;11.09;100.00;97086.91;6183546;23;20400;-90
2023/05/11 04:41:03;;;;;;;2.63;1.40;;;12.00;99.90;;;11.11;100.00;97098.03;6185587;23;20377;-91
2023/05/11 04:43:30;;;;;;;2.67;1.30;;;12.00;99.90;;;11.09;100.00;97094.84;6183510;23;20410;-91
2023/05/11 04:45:56;;;;;;;1.30;1.20;;;12.00;99.90;;;11.09;100.00;97092.19;6158600;23;20879;-90
2023/05/11 04:48:25;;;;;;;2.60;1.30;;;12.00;99.90;;;11.08;100.00;97089.78;6208836;23;20386;-90
2023/05/11 04:50:52;;;;;;;1.60;1.10;;;12.00;99.90;;;11.11;100.00;97094.59;6185007;23;20366;-91
2023/05/11 04:53:18;;;;;;;1.70;1.23;;;12.00;99.90;;;11.09;100.00;97094.03;6186728;23;20440;-90
2023/05/11 04:55:47;;;;;;;1.40;1.30;;;12.00;99.90;;;11.09;100.00;97099.34;6209733;23;20439;-89
2023/05/11 04:58:15;;;;;;;1.50;1.40;;;12.00;99.90;;;11.09;100.00;97094.03;6188844;23;20837;-88
2023/05/11 05:00:41;;;;;;;1.90;1.30;;;12.00;99.90;;;11.10;100.00;97095.63;6193943;23;20381;-87
2023/05/11 05:03:07;;;;;;;1.73;1.33;;;12.00;99.90;;;11.09;100.00;97099.34;6189971;23;20373;-88
2023/05/11 05:05:33;;;;;;;1.40;1.30;;;12.00;99.90;;;11.11;100.00;97097.22;6211412;23;20385;-89
2023/05/11 05:08:00;;;;;;;1.40;1.30;;;12.00;99.90;;;11.11;100.00;97100.69;6206579;23;20389;-90
2023/05/11 05:10:26;;;;;;;1.35;1.25;;;12.00;99.90;;;11.15;100.00;97098.28;6202208;23;20716;-90
2023/05/11 05:12:54;;;;;;;1.90;1.30;;;12.00;99.90;;;11.15;100.00;97099.09;6224945;23;20788;-92
2023/05/11 05:15:21;;;;;;;1.30;1.00;;;12.10;99.90;;;11.20;100.00;97093.78;6179001;23;20856;-91
2023/05/11 05:17:52;;;;;;;1.02;1.00;;;12.10;99.90;;;11.24;100.00;97100.19;6203935;23;20374;-90
2023/05/11 05:20:19;;;;;;;2.90;1.50;;;12.10;99.90;;;11.28;100.00;97099.66;6202652;23;20389;-90
2023/05/11 05:22:45;;;;;;;1.50;1.40;;;12.10;99.90;;;11.25;100.00;97095.69;6229548;23;20361;-90
2023/05/11 05:25:11;;;;;;;3.90;1.58;;;12.10;99.90;;;11.25;100.00;97099.13;6204707;23;20408;-92
2023/05/11 05:27:37;;;;;;;1.60;1.27;;;12.10;99.90;;;11.27;100.00;97096.22;6204984;23;20456;-90
2023/05/11 05:30:11;;;;;;;1.75;1.33;;;12.20;99.90;;;11.31;100.00;97104.41;6203582;23;20369;-89
2023/05/11 05:32:37;;;;;;;4.95;1.60;;;12.20;99.90;;;11.31;100.00;97105.22;6201363;23;20376;-90
2023/05/11 05:35:05;;;;;;;1.50;1.40;;;12.20;99.90;;;11.32;100.00;97106.81;6224708;23;20385;-90
2023/05/11 05:37:33;;;;;;;6.30;1.50;;;12.20;99.90;;;11.36;100.00;97102.56;6203549;23;20369;-90
2023/05/11 05:39:59;;;;;;;1.67;1.30;;;12.20;99.90;;;11.37;100.00;97100.72;6198200;23;20392;-90
2023/05/11 05:42:25;;;;;;;1.58;1.48;;;12.20;99.90;;;11.38;100.00;97105.75;6185999;23;20830;-90
2023/05/11 05:44:52;;;;;;;3.38;1.70;;;12.30;99.90;;;11.37;100.00;97101.50;6195257;23;20405;-90
2023/05/11 05:47:21;;;;;;;1.80;1.60;;;12.20;99.90;;;11.38;100.00;97104.97;6190231;23;20395;-91
2023/05/11 05:49:47;;;;;;;3.03;1.50;;;12.20;99.90;;;11.43;100.00;97112.91;6188762;23;20388;-90
2023/05/11 05:52:13;;;;;;;2.42;1.40;;;12.30;99.90;;;11.44;100.00;97107.34;6188630;23;20427;-90
2023/05/11 05:54:40;;;;;;;2.50;1.55;;;12.30;99.90;;;11.50;100.00;97106.28;6168429;23;20377;-91
2023/05/11 05:57:06;;;;;;;4.38;1.60;;;12.30;99.90;;;11.54;100.00;97111.88;6185904;23;20388;-91
2023/05/11 05:59:34;;;;;;;3.30;1.60;;;12.40;99.90;;;11.54;100.00;97112.69;6187940;23;20392;-90
2023/05/11 06:02:01;;;;;;;2.00;1.58;;;12.40;99.90;;;11.52;100.00;97112.13;6210144;23;20389;-91
2023/05/11 06:04:34;;;;;;;2.60;1.23;;;12.40;99.90;;;11.56;100.00;97112.41;6183563;23;20381;-92
2023/05/11 06:07:00;;;;;;;1.25;1.15;;;12.40;99.90;;;11.59;100.00;97120.63;6182963;23;20374;-91
2023/05/11 06:09:27;;;;;;;2.40;1.30;;;12.40;99.90;;;11.63;100.00;97115.59;6182269;23;20440;-91
2023/05/11 06:11:54;;;;;;;1.98;1.30;;;12.50;99.90;;;11.65;100.00;97113.50;6182146;23;20385;-90
2023/05/11 06:14:21;;;;;;;1.70;1.60;;;12.50;99.90;;;11.68;100.00;97117.47;6182067;23;20405;-91
2023/05/11 06:16:48;;;;;;;2.42;1.50;;;12.50;99.90;;;11.70;100.00;97124.09;6184816;23;20384;-90
2023/05/11 06:19:16;;;;;;;1.38;1.27;;;12.50;99.90;;;11.72;100.00;97127.28;6182614;23;20759;-90
2023/05/11 06:21:44;;;;;;;1.70;1.20;;;12.60;99.90;;;11.74;100.00;97122.53;6182054;23;20397;-90
2023/05/11 06:24:12;;;;;;;3.10;1.60;;;12.60;99.90;;;11.77;100.00;97131.81;6182231;23;20752;-90
2023/05/11 06:26:39;;;;;;;3.55;1.40;;;12.60;99.90;;;11.78;100.00;97128.09;6181835;23;20389;-90
2023/05/11 06:29:06;;;;;;;4.28;2.13;;;12.60;99.90;;;11.76;100.00;97125.72;6182677;23;20412;-90
2023/05/11 06:31:33;;;;;;;1.20;1.10;;;12.60;99.90;;;11.77;100.00;97124.66;6183134;23;20396;-91
2023/05/11 06:34:00;;;;;;;1.85;1.17;;;12.60;99.90;;;11.75;100.00;97118.81;6182915;23;20409;-91
2023/05/11 06:36:31;;;;;;;1.50;1.30;;;12.60;99.90;;;11.77;100.00;97126.50;6208069;23;20389;-90
2023/05/11 06:38:59;;;;;;;1.67;1.35;;;12.60;99.90;;;11.76;100.00;97120.41;6208296;23;20381;-90
2023/05/11 06:41:26;;;;;;;1.42;1.33;;;12.60;99.90;;;11.77;100.00;97124.66;6207990;23;20388;-90
2023/05/11 06:43:52;;;;;;;2.00;1.50;;;12.60;99.90;;;11.78;100.00;97123.59;6183563;23;20393;-90
2023/05/11 06:46:20;;;;;;;7.70;1.80;;;12.60;99.90;;;11.80;100.00;97131.31;6157591;23;20389;-90
2023/05/11 06:48:47;;;;;;;2.78;1.35;;;12.60;99.90;;;11.80;100.00;97137.38;6193972;23;20369;-90
2023/05/11 06:51:13;;;;;;;1.30;1.20;;;12.60;99.90;;;11.81;100.00;97119.59;6194248;23;20428;-91
2023/05/11 06:53:41;;;;;;;1.45;1.23;;;12.60;99.90;;;11.83;100.00;97123.59;6159649;23;20396;-90
2023/05/11 06:56:09;;;;;;;1.30;1.20;;;12.70;99.90;;;11.86;100.00;97123.06;6158742;23;20382;-90
2023/05/11 06:58:37;;;;;;;3.78;1.50;;;12.70;99.90;;;11.86;100.00;97122.28;6183390;23;20384;-91
2023/05/11 07:01:06;;;;;;;2.63;1.50;;;12.70;99.90;;;11.87;100.00;97122.03;6182440;23;20393;-89
2023/05/11 07:03:33;;;;;;;4.28;1.60;;;12.70;99.90;;;11.86;100.00;97124.94;6184850;23;20397;-88
2023/05/11 07:05:59;;;;;;;1.35;1.25;;;12.70;99.90;;;11.87;100.00;97118.56;6181910;23;21105;-88
2023/05/11 07:08:25;;;;;;;3.88;1.20;;;12.70;99.90;;;11.91;100.00;97123.06;6181413;23;20860;-88
2023/05/11 07:14:56;;;;;;;2.15;1.30;;;12.80;99.90;;;11.91;100.00;97127.56;6074400;23;20385;-92
2023/05/11 07:17:48;;;;;;;;;;;;;;;;;;;;;
2023/05/11 07:20:23;;;;;;;2.80;1.40;;;12.80;99.90;;;11.93;100.00;97134.22;6203438;23;20457;-91
2023/05/11 07:23:47;;;;;;;1.55;1.40;;;12.80;99.90;;;11.91;100.00;97125.72;6184605;23;20377;-91
2023/05/11 07:26:13;;;;;;;2.60;1.40;;;12.80;99.90;;;11.95;100.00;97129.41;6169740;23;20397;-90
2023/05/11 07:28:39;;;;;;;2.28;1.40;;;12.80;99.90;;;11.95;100.00;97131.31;6182729;23;20381;-91
2023/05/11 07:31:08;;;;;;;1.33;1.20;;;12.80;99.90;;;11.93;100.00;97130.75;6183058;23;20432;-90
2023/05/11 07:34:11;;;;;;;2.10;1.40;;;12.80;99.90;;;12.00;100.00;97139.25;6184454;23;20365;-91
2023/05/11 07:36:41;;;;;;;1.73;1.50;;;12.90;99.90;;;11.99;100.00;97133.16;6207620;23;20389;-91
2023/05/11 07:39:18;;;;;;;2.40;1.50;;;12.90;99.90;;;12.01;100.00;97133.69;6183374;23;20456;-91
2023/05/11 07:42:41;;;;;;;2.10;1.52;;;12.90;99.90;;;12.02;100.00;97134.50;6184729;23;20393;-92
2023/05/11 07:53:02;;;;;;;1.65;1.42;;;12.90;99.90;;;12.08;100.00;97138.72;6163573;23;20405;-91
2023/05/11 07:55:38;;;;;;;2.20;1.70;;;12.80;99.90;;;12.11;100.00;97142.69;6186259;23;20381;-93
2023/05/11 07:59:12;;;;;;;;;;;;;;;;;;;;;
